Terminal Aerodrome Forecast
Issued by NWS Twin Cities, MN

Home | Current Version | Previous Version | Graphics & Text | Print | Product List | Glossary Off
Versions: 1 2 3 4 5 6 7 8 9 10 11 12 13 14 15 16 17 18 19 20 21 22 23 24 25 26 27 28 29 30 31 32 33 34

000
FTUS43 KMPX 031302 AAA
TAFMSP
TAF AMD
KMSP 031302Z 0313/0418 11005KT 2SM BR OVC002
      TEMPO 0313/0315 4SM BR SCT005
     FM031500 11005KT P6SM SCT008 OVC025
     FM031600 16010KT P6SM SCT040
     FM040800 12007KT 6SM BR SCT004
     FM041500 13008KT P6SM SCT200=

USA.gov is the U.S. government's official web portal to all federal, state and local government web resources and services.